Santa Cruz de la Sierra, Bolivia

10:01 AM BOT en Septiembre 02, 2014 (GMT -0400)
Viru Viru International | Change Station
CLOSE
Current Station
Aeropuerto
Location: Viru-Viru,
Altura: 1224 ft
Estaciones meteorológicas cercanas

Alt 1224 ft 17.64 °S, 63.14 °W | Updated 1 hour ago

Scattered Clouds
Nubes dispersas
84 ° F
Sensación térmica 87 ° F
N
28
Viento Variable Viento desde NNO
Gusts 39 mph

Hoy
Alta -- | Baja -- ° F
--% Posibilidad de precipitaciones
Ayer
Alta -- | Baja -- ° F
Precip. -- pul
6:19 AM 6:05 PM
Cuarto creciente, 51% visible
Presión 29.80 pul
Visibilidad 6.2 Millas
Nubes Baja 1700 ft
Nubes dispersas 20000 ft
Índice de calor 87 ° F
Punto de rocío 68 ° F
Humedad 58%
Precipitaciones 0.00 pul
Espesor de la nieve No disponible.
UV 4 de una escala de 12
Polen No disponible.
Calidad del aire No disponible.
Flu Activity No disponible.
METAR SLVR 021300Z 33024G34KT 9999 FEW017 SCT200 29/20 Q1009

More Conditions Fewer Conditions

Presión 29.80 pul
Visibilidad 6.2 Millas
Nubes Baja 1700 ft
Nubes dispersas 20000 ft
Índice de calor 87 ° F
Punto de rocío 68 ° F
Humedad 58%
Precipitaciones 0.00 pul
Espesor de la nieve No disponible.
UV 4 de una escala de 12
Polen No disponible.
Calidad del aire No disponible.
Flu Activity No disponible.
METAR SLVR 021300Z 33024G34KT 9999 FEW017 SCT200 29/20 Q1009

More Conditions Fewer Conditions

10-Day Weather Forecast

Almanac

Astronomía

Sep. 02, 2014 Salida Puesta
Hora real 6:19 AM BOT 6:05 PM BOT
Crepúsculo civil 5:57 AM BOT 6:27 PM BOT
Crepúsculo náutico 5:31 AM BOT 6:53 PM BOT
Crepúsculo astronómico 5:06 AM BOT 7:18 PM BOT
Luna 11:49 AM BOT 12:10 AM BOT
Horas de luz 12h 30m
Horas de luz
11h 46m
Tomorrow will be 0m 57s longer.
Cuarto creciente, 51% of the Moon is Illuminated
Hoy
Cuarto creciente
Sep 8
Luna llena
Sep 15
Cuarto menguante
Sep 24
Nueva
Oct 1
Cuarto creciente

Extremos de ayer

Máximos del país Bajas del país

Community

WunderPhotos

Upload Photos

1,749,670 ¡fotos cargadas!

WunderBlogs® & News

Nearby

Calidad del aire

Not available.

Grosos de nieve

Not available.

Actividad de terremotos

Ciudad Distance Mag. Tiempo y dato
No hay informes recientes de la actividad sísmica.
Magnitud mínima muestra es 2,5.

Temperaturas de aguas costeras

Lugar Temperatura
Sin partes meteorológicos de las estaciones

Estaciones meteorológicas cercanas